createdAt,value
2019-01-02T00:01:53.379Z,99052.97
2019-01-02T00:04:22.378Z,99078.63
2019-01-02T00:06:50.755Z,99078.33
2019-01-02T00:09:19.144Z,99062.96
2019-01-02T00:11:47.550Z,99074.14
2019-01-02T00:14:15.934Z,99067.48
2019-01-02T00:16:44.884Z,99080.55
2019-01-02T00:19:13.567Z,99071.53
2019-01-02T00:21:42.129Z,99063.08
2019-01-02T00:24:10.511Z,99064.17
2019-01-02T00:26:39.195Z,99063.61
2019-01-02T00:29:07.906Z,99077.30
2019-01-02T00:31:36.529Z,99080.54
2019-01-02T00:34:04.936Z,99086.31
2019-01-02T00:36:33.322Z,99085.75
2019-01-02T00:39:01.707Z,99102.22
2019-01-02T00:41:30.412Z,99099.58
2019-01-02T00:43:59.099Z,99103.41
2019-01-02T00:46:27.786Z,99112.42
2019-01-02T00:48:56.203Z,99108.03
2019-01-02T00:51:24.589Z,99100.46
2019-01-02T00:53:53.355Z,99114.91
2019-01-02T00:56:21.762Z,99110.55
2019-01-02T00:58:50.328Z,99116.05
2019-01-02T01:01:18.716Z,99116.31
2019-01-02T01:03:47.461Z,99125.08
2019-01-02T01:06:15.848Z,99120.66
2019-01-02T01:08:44.239Z,99126.88
2019-01-02T01:11:12.644Z,99136.42
2019-01-02T01:13:41.035Z,99130.33
2019-01-02T01:16:09.429Z,99130.28
2019-01-02T01:18:37.833Z,99134.28
2019-01-02T01:21:06.461Z,99133.39
2019-01-02T01:23:34.847Z,99139.31
2019-01-02T01:26:03.242Z,99141.05
2019-01-02T01:28:31.906Z,99142.20
2019-01-02T01:31:00.289Z,99150.13
2019-01-02T01:33:28.692Z,99143.56
2019-01-02T01:35:57.078Z,99157.82
2019-01-02T01:38:25.458Z,99144.65
2019-01-02T01:40:54.237Z,99155.56
2019-01-02T01:43:22.622Z,99160.14
2019-01-02T01:45:51.012Z,99178.13
2019-01-02T01:48:19.414Z,99175.98
2019-01-02T01:50:47.796Z,99177.59
2019-01-02T01:53:16.456Z,99192.95
2019-01-02T01:55:44.863Z,99152.80
2019-01-02T01:58:13.250Z,99199.59
2019-01-02T02:00:41.980Z,99198.62
2019-01-02T02:03:10.384Z,99204.14
2019-01-02T02:05:39.043Z,99201.56
2019-01-02T02:08:07.431Z,99191.95
2019-01-02T02:10:36.159Z,99185.86
2019-01-02T02:13:05.136Z,99187.59
2019-01-02T02:15:33.522Z,99184.61
2019-01-02T02:18:01.932Z,99186.75
2019-01-02T02:20:30.314Z,99183.25
2019-01-02T02:22:58.955Z,99185.90
2019-01-02T02:25:27.948Z,99173.53
2019-01-02T02:27:56.339Z,99177.84
2019-01-02T02:30:24.734Z,99186.30
2019-01-02T02:32:53.129Z,99179.23
2019-01-02T02:35:21.517Z,99175.52
2019-01-02T02:37:50.166Z,99171.15
2019-01-02T02:40:18.634Z,99162.97
2019-01-02T02:42:47.022Z,99174.10
2019-01-02T02:45:15.778Z,99174.66
2019-01-02T02:47:44.564Z,99179.34
2019-01-02T02:50:15.204Z,99181.09
2019-01-02T02:52:43.909Z,99176.00
2019-01-02T02:55:15.251Z,99173.53
2019-01-02T02:57:43.632Z,99191.38
2019-01-02T03:00:16.437Z,99180.21
2019-01-02T03:02:44.900Z,99179.95
2019-01-02T03:05:15.122Z,99190.14
2019-01-02T03:07:43.879Z,99197.49
2019-01-02T03:10:15.057Z,99200.02
2019-01-02T03:12:43.811Z,99200.06
2019-01-02T03:15:13.043Z,99201.42
2019-01-02T03:17:41.444Z,99200.80
2019-01-02T03:20:12.360Z,99216.06
2019-01-02T03:22:41.026Z,99205.94
2019-01-02T03:25:11.742Z,99195.74
2019-01-02T03:27:40.404Z,99207.48
2019-01-02T03:30:17.221Z,99214.72
2019-01-02T03:32:46.221Z,99201.61
2019-01-02T03:35:15.085Z,99196.87
2019-01-02T03:37:43.478Z,99205.23
2019-01-02T03:40:13.000Z,99195.56
2019-01-02T03:42:41.625Z,99206.67
2019-01-02T03:45:12.663Z,99213.23
2019-01-02T03:47:41.046Z,99210.98
2019-01-02T03:50:12.489Z,99217.06
2019-01-02T03:52:40.941Z,99223.34
2019-01-02T03:55:10.466Z,99225.23
2019-01-02T03:57:38.931Z,99214.61
2019-01-02T04:00:12.953Z,99221.67
2019-01-02T04:02:41.497Z,99228.22
2019-01-02T04:05:12.961Z,99229.85
2019-01-02T04:07:42.697Z,99220.82
2019-01-02T04:10:13.756Z,99223.55
2019-01-02T04:12:42.173Z,99212.25
2019-01-02T04:15:10.557Z,99209.59
2019-01-02T04:17:39.264Z,99205.11
2019-01-02T04:20:08.440Z,99215.43
2019-01-02T04:22:36.816Z,99217.06
2019-01-02T04:25:07.132Z,99211.28
2019-01-02T04:27:35.543Z,99204.12
2019-01-02T04:30:09.134Z,99216.41
2019-01-02T04:32:37.830Z,99215.04
2019-01-02T04:35:06.649Z,99222.97
2019-01-02T04:37:35.029Z,99220.05
2019-01-02T04:40:04.007Z,99233.08
2019-01-02T04:42:32.681Z,99230.67
2019-01-02T04:45:01.060Z,99214.27
2019-01-02T04:47:29.746Z,99233.59
2019-01-02T04:49:58.378Z,99239.31
2019-01-02T04:52:26.774Z,99231.45
2019-01-02T04:54:55.175Z,99219.77
2019-01-02T04:57:23.811Z,99218.23
2019-01-02T04:59:52.555Z,99223.48
2019-01-02T05:02:20.959Z,99217.59
2019-01-02T05:04:49.337Z,99218.12
2019-01-02T05:07:17.735Z,99230.69
2019-01-02T05:09:46.130Z,99227.44
2019-01-02T05:12:14.511Z,99242.88
2019-01-02T05:14:43.239Z,99241.51
2019-01-02T05:17:11.694Z,99254.30
2019-01-02T05:19:40.072Z,99258.67
2019-01-02T05:22:08.467Z,99260.09
2019-01-02T05:24:36.851Z,99255.94
2019-01-02T05:27:05.543Z,99257.61
2019-01-02T05:29:33.946Z,99251.58
2019-01-02T05:32:02.577Z,99251.58
2019-01-02T05:34:30.975Z,99252.41
2019-01-02T05:36:59.378Z,99262.75
2019-01-02T05:39:27.767Z,99257.61
2019-01-02T05:41:56.151Z,99258.92
2019-01-02T05:44:24.560Z,99255.94
2019-01-02T05:46:52.934Z,99251.27
2019-01-02T05:49:21.316Z,99246.31
2019-01-02T05:51:49.947Z,99243.40
2019-01-02T05:54:18.336Z,99246.91
2019-01-02T05:56:46.716Z,99236.78
2019-01-02T05:59:15.119Z,99230.55
2019-01-02T06:01:43.500Z,99231.92
2019-01-02T06:04:12.148Z,99240.37
2019-01-02T06:06:40.546Z,99243.40
2019-01-02T06:09:09.671Z,99252.88
2019-01-02T06:11:38.052Z,99253.22
2019-01-02T06:14:06.446Z,99265.20
2019-01-02T06:16:34.829Z,99261.45
2019-01-02T06:19:03.232Z,99269.04
2019-01-02T06:21:31.936Z,99263.59
2019-01-02T06:24:00.320Z,99248.41
2019-01-02T06:26:28.716Z,99247.56
2019-01-02T06:28:57.362Z,99257.11
2019-01-02T06:31:25.747Z,99261.64
2019-01-02T06:33:54.152Z,99270.85
2019-01-02T06:36:22.540Z,99275.08
2019-01-02T06:38:50.923Z,99269.37
2019-01-02T06:41:19.322Z,99259.00
2019-01-02T06:43:47.703Z,99253.08
2019-01-02T06:46:16.427Z,99245.76
2019-01-02T06:48:45.055Z,99248.93
2019-01-02T06:51:13.441Z,99250.82
2019-01-02T06:53:42.067Z,99250.55
2019-01-02T06:56:10.757Z,99252.16
2019-01-02T06:58:39.411Z,99263.00
2019-01-02T07:01:08.132Z,99255.91
2019-01-02T07:03:36.532Z,99269.54
2019-01-02T07:06:05.200Z,99262.23
2019-01-02T07:08:33.579Z,99266.63
2019-01-02T07:11:02.263Z,99269.87
2019-01-02T07:13:30.953Z,99275.02
2019-01-02T07:15:59.340Z,99279.69
2019-01-02T07:18:27.736Z,99277.55
2019-01-02T07:20:56.145Z,99291.42
2019-01-02T07:23:24.886Z,99292.07
2019-01-02T07:25:53.331Z,99300.38
2019-01-02T07:28:22.043Z,99301.55
2019-01-02T07:30:50.429Z,99293.81
2019-01-02T07:33:21.347Z,99297.27
2019-01-02T07:36:17.385Z,99296.60
2019-01-02T07:38:51.692Z,99292.54
2019-01-02T07:41:38.069Z,99291.95
2019-01-02T07:44:12.206Z,99299.52
2019-01-02T07:46:55.824Z,99308.11
2019-01-02T07:49:33.516Z,99307.34
2019-01-02T07:52:22.102Z,99314.07
2019-01-02T07:55:02.002Z,99312.70
2019-01-02T07:57:54.373Z,99316.23
2019-01-02T08:00:25.824Z,99324.78
2019-01-02T08:03:06.116Z,99320.69
2019-01-02T08:05:40.304Z,99333.48
2019-01-02T08:08:11.742Z,99331.63
2019-01-02T08:11:04.490Z,99328.17
2019-01-02T08:13:50.717Z,99321.95
2019-01-02T08:16:51.968Z,99321.75
2019-01-02T08:19:56.777Z,99338.89
2019-01-02T08:22:47.615Z,99325.88
2019-01-02T08:25:33.302Z,99328.45
2019-01-02T08:28:29.207Z,99336.16
2019-01-02T08:31:06.406Z,99332.30
2019-01-02T08:33:43.223Z,99343.78
2019-01-02T08:36:34.079Z,99339.08
2019-01-02T08:39:26.556Z,99353.58
2019-01-02T08:42:03.580Z,99355.88
2019-01-02T08:44:35.272Z,99353.17
2019-01-02T08:47:26.409Z,99346.67
2019-01-02T08:50:18.763Z,99348.38
2019-01-02T08:52:59.109Z,99354.95
2019-01-02T08:55:40.007Z,99355.54
2019-01-02T08:58:30.465Z,99364.30
2019-01-02T09:01:18.660Z,99366.25
2019-01-02T09:04:09.899Z,99381.73
2019-01-02T09:06:52.652Z,99377.38
2019-01-02T09:09:36.278Z,99382.50
2019-01-02T09:12:41.005Z,99379.47
2019-01-02T09:15:29.928Z,99391.41
2019-01-02T09:18:01.621Z,99378.55
2019-01-02T09:20:50.930Z,99386.00
2019-01-02T09:23:24.836Z,99394.37
2019-01-02T09:26:13.939Z,99394.97
2019-01-02T09:29:02.111Z,99399.01
2019-01-02T09:32:02.210Z,99395.16
2019-01-02T09:35:07.343Z,99395.39
2019-01-02T09:37:55.331Z,99392.49
2019-01-02T09:40:29.801Z,99389.59
2019-01-02T09:43:07.398Z,99402.03
2019-01-02T09:45:44.791Z,99397.67
2019-01-02T09:48:21.840Z,99401.41
2019-01-02T09:51:02.438Z,99407.05
2019-01-02T09:53:52.522Z,99398.09
2019-01-02T09:56:24.218Z,99403.30
2019-01-02T09:59:21.408Z,99400.84
2019-01-02T10:02:07.962Z,99394.86
2019-01-02T10:05:08.033Z,99396.71
2019-01-02T10:07:39.818Z,99391.42
2019-01-02T10:10:31.024Z,99394.73
2019-01-02T10:13:11.292Z,99393.70
2019-01-02T10:15:51.441Z,99389.12
2019-01-02T10:18:28.942Z,99393.60
2019-01-02T10:21:09.485Z,99386.75
2019-01-02T10:23:49.641Z,99380.94
2019-01-02T10:26:30.433Z,99383.26
2019-01-02T10:29:04.500Z,99393.38
2019-01-02T10:31:57.295Z,99397.22
2019-01-02T10:34:43.800Z,99386.73
2019-01-02T10:37:26.963Z,99385.09
2019-01-02T10:40:24.686Z,99375.55
2019-01-02T10:43:17.362Z,99373.97
2019-01-02T10:46:09.982Z,99382.91
2019-01-02T10:48:46.750Z,99377.63
2019-01-02T10:51:34.737Z,99383.61
2019-01-02T10:54:12.190Z,99374.79
2019-01-02T10:56:47.018Z,99375.70
2019-01-02T10:59:30.655Z,99371.81
2019-01-02T11:02:11.120Z,99385.06
2019-01-02T11:04:45.139Z,99374.77
2019-01-02T11:07:32.954Z,99370.03
2019-01-02T11:10:19.417Z,99364.94
2019-01-02T11:13:10.603Z,99363.81
2019-01-02T11:15:53.887Z,99369.47
2019-01-02T11:18:50.660Z,99361.37
2019-01-02T11:21:38.942Z,99361.44
2019-01-02T11:24:28.547Z,99354.42
2019-01-02T11:27:16.658Z,99356.10
2019-01-02T11:30:07.424Z,99348.23
2019-01-02T11:32:55.662Z,99352.19
2019-01-02T11:36:00.588Z,99354.00
2019-01-02T11:38:43.984Z,99354.47
2019-01-02T11:41:15.462Z,99333.74
2019-01-02T11:44:08.227Z,99332.69
2019-01-02T11:46:36.630Z,99329.23
2019-01-02T11:49:05.083Z,99326.90
2019-01-02T11:51:33.483Z,99322.14
2019-01-02T11:54:01.959Z,99331.95
2019-01-02T11:56:30.476Z,99327.92
2019-01-02T11:58:58.856Z,99327.93
2019-01-02T12:01:27.251Z,99324.78
2019-01-02T12:03:55.641Z,99331.54
2019-01-02T12:06:24.023Z,99327.70
2019-01-02T12:08:52.441Z,99305.69
2019-01-02T12:11:21.113Z,99323.23
2019-01-02T12:13:49.795Z,99328.59
2019-01-02T12:16:18.207Z,99326.77
2019-01-02T12:18:46.604Z,99319.23
2019-01-02T12:21:15.238Z,99333.41
2019-01-02T12:23:43.643Z,99328.58
2019-01-02T12:26:12.113Z,99315.58
2019-01-02T12:28:42.232Z,99319.62
2019-01-02T12:31:10.904Z,99321.13
2019-01-02T12:33:39.296Z,99315.41
2019-01-02T12:36:07.679Z,99315.20
2019-01-02T12:38:36.352Z,99315.16
2019-01-02T12:41:05.063Z,99324.38
2019-01-02T12:43:33.719Z,99325.37
2019-01-02T12:46:02.124Z,99310.38
2019-01-02T12:48:30.504Z,99312.11
2019-01-02T12:50:58.884Z,99317.18
2019-01-02T12:53:27.287Z,99305.19
2019-01-02T12:55:55.703Z,99319.17
2019-01-02T12:58:24.054Z,99339.48
2019-01-02T13:00:55.747Z,99334.17
2019-01-02T13:03:39.337Z,99336.98
2019-01-02T13:06:10.799Z,99347.84
2019-01-02T13:08:45.212Z,99355.97
2019-01-02T13:11:22.227Z,99360.13
2019-01-02T13:14:06.307Z,99364.86
2019-01-02T13:16:40.805Z,99355.29
2019-01-02T13:19:27.621Z,99362.28
2019-01-02T13:22:10.385Z,99359.36
2019-01-02T13:24:53.880Z,99362.54
2019-01-02T13:27:28.364Z,99359.90
2019-01-02T13:30:25.755Z,99360.63
2019-01-02T13:33:24.765Z,99356.25
2019-01-02T13:36:17.119Z,99360.28
2019-01-02T13:38:48.921Z,99360.58
2019-01-02T13:41:38.439Z,99352.02
2019-01-02T13:44:27.923Z,99362.09
2019-01-02T13:47:31.599Z,99365.61
2019-01-02T13:50:05.808Z,99368.55
2019-01-02T13:52:34.643Z,99371.64
2019-01-02T13:55:05.186Z,99368.39
2019-01-02T13:57:33.904Z,99373.09
2019-01-02T14:00:02.501Z,99373.98
2019-01-02T14:02:31.130Z,99372.39
2019-01-02T14:04:59.901Z,99371.62
2019-01-02T14:07:28.398Z,99369.28
2019-01-02T14:09:57.165Z,99376.94
2019-01-02T14:12:25.567Z,99374.67
2019-01-02T14:14:54.352Z,99385.00
2019-01-02T14:17:22.787Z,99390.14
2019-01-02T14:19:51.630Z,99382.49
2019-01-02T14:22:20.052Z,99385.14
2019-01-02T14:24:48.453Z,99384.66
2019-01-02T14:27:17.147Z,99390.28
2019-01-02T14:29:45.827Z,99387.42
2019-01-02T14:32:14.252Z,99393.41
2019-01-02T14:34:44.852Z,99399.43
2019-01-02T14:37:14.968Z,99401.19
2019-01-02T14:39:43.384Z,99401.14
2019-01-02T14:42:12.138Z,99397.47
2019-01-02T14:44:40.857Z,99400.28
2019-01-02T14:47:09.604Z,99407.52
2019-01-02T14:49:37.994Z,99412.92
2019-01-02T14:52:06.464Z,99417.20
2019-01-02T14:54:35.572Z,99428.95
2019-01-02T14:57:04.169Z,99431.44
2019-01-02T14:59:32.798Z,99433.58
2019-01-02T15:02:01.204Z,99429.89
2019-01-02T15:04:29.595Z,99441.33
2019-01-02T15:06:57.987Z,99426.80
2019-01-02T15:09:26.381Z,99442.45
2019-01-02T15:11:54.766Z,99438.50
2019-01-02T15:14:23.165Z,99437.53
2019-01-02T15:16:51.896Z,99448.34
2019-01-02T15:19:20.558Z,99448.25
2019-01-02T15:21:49.241Z,99448.91
2019-01-02T15:24:17.623Z,99456.09
2019-01-02T15:26:46.012Z,99463.09
2019-01-02T15:29:14.417Z,99465.38
2019-01-02T15:31:43.063Z,99461.76
2019-01-02T15:34:11.450Z,99462.84
2019-01-02T15:36:39.847Z,99464.92
2019-01-02T15:39:08.315Z,99468.91
2019-01-02T15:41:36.699Z,99475.38
2019-01-02T15:44:05.099Z,99475.81
2019-01-02T15:46:35.192Z,99474.70
2019-01-02T15:49:03.574Z,99485.59
2019-01-02T15:51:31.988Z,99483.16
2019-01-02T15:54:00.369Z,99485.53
2019-01-02T15:56:28.747Z,99481.69
2019-01-02T15:58:57.487Z,99487.42
2019-01-02T16:01:26.174Z,99487.77
2019-01-02T16:03:54.551Z,99498.08
2019-01-02T16:06:23.001Z,99500.59
2019-01-02T16:08:51.387Z,99500.77
2019-01-02T16:11:19.777Z,99498.12
2019-01-02T16:13:48.207Z,99508.84
2019-01-02T16:16:16.587Z,99520.20
2019-01-02T16:18:45.237Z,99516.84
2019-01-02T16:21:13.915Z,99524.28
2019-01-02T16:23:42.602Z,99531.30
2019-01-02T16:26:11.391Z,99536.77
2019-01-02T16:28:39.848Z,99543.66
2019-01-02T16:31:08.229Z,99542.45
2019-01-02T16:33:36.661Z,99549.03
2019-01-02T16:36:05.059Z,99549.34
2019-01-02T16:38:33.441Z,99547.09
2019-01-02T16:41:02.070Z,99545.30
2019-01-02T16:43:30.760Z,99547.38
2019-01-02T16:45:59.146Z,99554.19
2019-01-02T16:48:27.527Z,99552.91
2019-01-02T16:50:55.924Z,99561.17
2019-01-02T16:53:24.306Z,99565.25
2019-01-02T16:55:52.687Z,99568.31
2019-01-02T16:58:21.083Z,99564.54
2019-01-02T17:00:49.751Z,99574.35
2019-01-02T17:03:18.130Z,99570.75
2019-01-02T17:05:46.525Z,99571.44
2019-01-02T17:08:14.902Z,99567.34
2019-01-02T17:10:43.571Z,99566.23
2019-01-02T17:15:46.478Z,99575.11
2019-01-02T17:18:15.160Z,99576.48
2019-01-02T17:20:43.846Z,99570.48
2019-01-02T17:23:12.533Z,99580.92
2019-01-02T17:25:40.932Z,99583.66
2019-01-02T17:28:28.656Z,99582.25
2019-01-02T17:30:57.296Z,99581.92
2019-01-02T17:33:25.677Z,99590.49
2019-01-02T17:35:54.058Z,99593.81
2019-01-02T17:38:22.510Z,99594.69
2019-01-02T17:40:50.896Z,99602.90
2019-01-02T17:43:19.276Z,99608.19
2019-01-02T17:45:47.672Z,99606.83
2019-01-02T17:48:16.053Z,99612.42
2019-01-02T17:50:44.681Z,99618.66
2019-01-02T17:53:13.392Z,99620.46
2019-01-02T17:55:42.060Z,99618.95
2019-01-02T17:58:10.438Z,99621.06
2019-01-02T18:00:38.836Z,99621.30
2019-01-02T18:03:07.499Z,99629.70
2019-01-02T18:05:36.183Z,99622.58
2019-01-02T18:08:04.600Z,99632.27
2019-01-02T18:10:32.980Z,99634.83
2019-01-02T18:13:01.630Z,99638.16
2019-01-02T18:15:30.320Z,99648.67
2019-01-02T18:17:58.721Z,99652.38
2019-01-02T18:20:27.103Z,99657.20
2019-01-02T18:22:55.503Z,99660.24
2019-01-02T18:25:23.889Z,99656.20
2019-01-02T18:27:52.276Z,99662.12
2019-01-02T18:30:20.687Z,99661.89
2019-01-02T18:32:49.159Z,99661.60
2019-01-02T18:35:17.534Z,99666.44
2019-01-02T18:37:46.236Z,99664.00
2019-01-02T18:40:14.925Z,99665.75
2019-01-02T18:42:43.608Z,99669.00
2019-01-02T18:45:12.008Z,99674.52
2019-01-02T18:47:40.672Z,99681.71
2019-01-02T18:50:09.872Z,99681.11
2019-01-02T18:52:38.555Z,99682.33
2019-01-02T18:55:07.244Z,99690.49
2019-01-02T18:57:35.930Z,99687.31
2019-01-02T19:00:06.422Z,99694.17
2019-01-02T19:02:34.829Z,99694.13
2019-01-02T19:05:03.385Z,99695.86
2019-01-02T19:07:32.105Z,99693.80
2019-01-02T19:10:00.496Z,99694.79
2019-01-02T19:12:29.174Z,99694.55
2019-01-02T19:14:58.402Z,99701.06
2019-01-02T19:17:27.056Z,99698.55
2019-01-02T19:19:55.447Z,99705.58
2019-01-02T19:22:23.854Z,99708.14
2019-01-02T19:24:52.512Z,99707.30
2019-01-02T19:27:21.186Z,99700.73
2019-01-02T19:29:49.895Z,99712.12
2019-01-02T19:32:18.555Z,99714.09
2019-01-02T19:34:46.934Z,99714.00
2019-01-02T19:37:15.607Z,99710.75
2019-01-02T19:39:43.960Z,99723.68
2019-01-02T19:42:12.346Z,99720.02
2019-01-02T19:44:41.062Z,99722.94
2019-01-02T19:47:09.754Z,99719.02
2019-01-02T19:49:38.140Z,99726.78
2019-01-02T19:52:06.825Z,99730.67
2019-01-02T19:54:35.454Z,99728.63
2019-01-02T19:57:03.832Z,99729.15
2019-01-02T19:59:32.466Z,99734.06
2019-01-02T20:02:01.149Z,99730.61
2019-01-02T20:04:29.532Z,99739.46
2019-01-02T20:06:57.930Z,99734.55
2019-01-02T20:09:26.312Z,99733.73
2019-01-02T20:11:54.697Z,99727.59
2019-01-02T20:14:23.100Z,99726.97
2019-01-02T20:16:51.831Z,99733.25
2019-01-02T20:19:20.223Z,99730.92
2019-01-02T20:21:49.450Z,99732.03
2019-01-02T20:24:17.884Z,99731.12
2019-01-02T20:26:46.597Z,99734.00
2019-01-02T20:29:14.999Z,99732.03
2019-01-02T20:31:43.384Z,99735.26
2019-01-02T20:34:11.771Z,99737.98
2019-01-02T20:36:40.771Z,99732.09
2019-01-02T20:39:09.689Z,99730.08
2019-01-02T20:41:39.076Z,99734.03
2019-01-02T20:44:07.708Z,99735.61
2019-01-02T20:46:36.118Z,99739.67
2019-01-02T20:49:04.501Z,99744.85
2019-01-02T20:51:32.886Z,99744.73
2019-01-02T20:54:01.609Z,99742.81
2019-01-02T20:56:29.993Z,99746.38
2019-01-02T20:58:58.374Z,99743.76
2019-01-02T21:01:26.783Z,99743.28
2019-01-02T21:03:55.430Z,99757.94
2019-01-02T21:06:23.821Z,99755.22
2019-01-02T21:08:52.220Z,99758.51
2019-01-02T21:11:20.604Z,99757.34
2019-01-02T21:13:49.251Z,99764.14
2019-01-02T21:16:17.939Z,99761.42
2019-01-02T21:18:46.329Z,99759.13
2019-01-02T21:21:14.715Z,99746.39
2019-01-02T21:23:43.112Z,99759.19
2019-01-02T21:26:11.765Z,99766.05
2019-01-02T21:28:40.147Z,99760.48
2019-01-02T21:31:08.542Z,99748.27
2019-01-02T21:33:37.204Z,99751.76
2019-01-02T21:36:05.723Z,99749.39
2019-01-02T21:38:34.114Z,99748.71
2019-01-02T21:41:02.752Z,99747.52
2019-01-02T21:43:31.435Z,99744.93
2019-01-02T21:46:00.124Z,99755.41
2019-01-02T21:48:28.807Z,99755.50
2019-01-02T21:50:57.197Z,99758.12
2019-01-02T21:53:25.887Z,99757.73
2019-01-02T21:55:54.507Z,99757.60
2019-01-02T21:58:23.031Z,99754.56
2019-01-02T22:00:51.734Z,99754.63
2019-01-02T22:03:20.133Z,99754.12
2019-01-02T22:05:49.199Z,99757.91
2019-01-02T22:08:17.742Z,99757.91
2019-01-02T22:10:46.147Z,99764.55
2019-01-02T22:13:14.849Z,99760.08
2019-01-02T22:15:43.529Z,99760.42
2019-01-02T22:18:11.934Z,99760.34
2019-01-02T22:20:40.596Z,99769.05
2019-01-02T22:23:09.286Z,99762.66
2019-01-02T22:25:37.966Z,99769.16
2019-01-02T22:28:06.652Z,99773.37
2019-01-02T22:30:37.055Z,99772.20
2019-01-02T22:33:05.165Z,99765.53
2019-01-02T22:35:33.549Z,99774.30
2019-01-02T22:38:02.218Z,99774.92
2019-01-02T22:40:30.611Z,99782.37
2019-01-02T22:42:59.286Z,99784.75
2019-01-02T22:45:27.671Z,99779.77
2019-01-02T22:47:56.299Z,99784.28
2019-01-02T22:50:24.685Z,99784.23
2019-01-02T22:52:53.084Z,99791.14
2019-01-02T22:55:21.494Z,99785.30
2019-01-02T22:57:49.880Z,99793.23
2019-01-02T23:00:22.686Z,99797.11
2019-01-02T23:02:56.041Z,99794.80
2019-01-02T23:05:26.383Z,99797.33
2019-01-02T23:07:56.439Z,99797.77
2019-01-02T23:10:41.472Z,99798.80
2019-01-02T23:13:30.004Z,99805.69
2019-01-02T23:16:03.043Z,99810.34
2019-01-02T23:18:39.085Z,99815.48
2019-01-02T23:21:14.815Z,99820.86
2019-01-02T23:24:00.988Z,99815.88
2019-01-02T23:26:31.326Z,99823.36
2019-01-02T23:29:01.343Z,99817.30
2019-01-02T23:31:47.507Z,99827.83
2019-01-02T23:34:32.497Z,99828.23
2019-01-02T23:37:17.483Z,99828.96
2019-01-02T23:40:05.732Z,99835.35
2019-01-02T23:42:35.830Z,99832.78
2019-01-02T23:45:09.312Z,99841.87
2019-01-02T23:47:45.025Z,99841.89
2019-01-02T23:50:17.766Z,99843.87
2019-01-02T23:52:47.797Z,99842.84
2019-01-02T23:55:33.173Z,99843.95
2019-01-02T23:58:03.211Z,99832.30
